createdAt,value
2022-09-07T00:01:07.493Z,100923.47
2022-09-07T00:03:37.583Z,100921.97
2022-09-07T00:06:08.977Z,100919.28
2022-09-07T00:08:36.875Z,100925.91
2022-09-07T00:11:07.610Z,100926.59
2022-09-07T00:13:37.857Z,100923.63
2022-09-07T00:16:12.068Z,100916.44
2022-09-07T00:18:45.094Z,100920.38
2022-09-07T00:21:15.238Z,100918.19
2022-09-07T00:23:42.716Z,100914.72
2022-09-07T00:26:13.756Z,100922.84
2022-09-07T00:28:42.336Z,100916.59
2022-09-07T00:31:13.527Z,100909.44
2022-09-07T00:33:42.126Z,100891.19
2022-09-07T00:36:09.785Z,100905.28
2022-09-07T00:38:37.831Z,100913.66
2022-09-07T00:41:05.923Z,100904.19
2022-09-07T00:43:35.205Z,100910.75
2022-09-07T00:46:04.508Z,100902.50
2022-09-07T00:48:39.723Z,100900.50
2022-09-07T00:51:12.177Z,100902.00
2022-09-07T00:53:43.835Z,100900.91
2022-09-07T00:56:11.910Z,100909.31
2022-09-07T00:58:42.735Z,100911.91
2022-09-07T01:01:13.970Z,100920.31
2022-09-07T01:03:47.700Z,100914.41
2022-09-07T01:06:25.242Z,100905.69
2022-09-07T01:08:55.027Z,100902.00
2022-09-07T01:11:23.022Z,100903.97
2022-09-07T01:13:51.961Z,100900.06
2022-09-07T01:16:37.998Z,100911.88
2022-09-07T01:19:27.181Z,100901.56
2022-09-07T01:21:57.494Z,100915.03
2022-09-07T01:24:35.425Z,100913.44
2022-09-07T01:27:47.601Z,100921.03
2022-09-07T01:30:17.953Z,100911.78
2022-09-07T01:33:04.477Z,100916.88
2022-09-07T01:35:53.599Z,100905.31
2022-09-07T01:38:30.378Z,100911.34
2022-09-07T01:41:07.823Z,100904.00
2022-09-07T01:43:53.497Z,100907.53
2022-09-07T01:46:29.474Z,100914.19
2022-09-07T01:49:23.015Z,100903.41
2022-09-07T01:51:57.218Z,100893.06
2022-09-07T01:54:32.091Z,100896.66
2022-09-07T01:57:08.970Z,100890.00
2022-09-07T01:59:42.731Z,100897.28
2022-09-07T02:02:16.787Z,100887.28
2022-09-07T02:05:02.109Z,100873.50
2022-09-07T02:07:45.388Z,100865.19
2022-09-07T02:10:26.860Z,100870.41
2022-09-07T02:13:16.584Z,100867.25
2022-09-07T02:15:57.917Z,100881.94
2022-09-07T02:18:29.667Z,100878.41
2022-09-07T02:20:58.154Z,100877.34
2022-09-07T02:23:30.745Z,100867.84
2022-09-07T02:26:07.334Z,100855.16
2022-09-07T02:28:36.755Z,100850.66
2022-09-07T02:31:04.681Z,100841.34
2022-09-07T02:33:32.299Z,100846.59
2022-09-07T02:36:01.727Z,100849.25
2022-09-07T02:38:30.233Z,100852.91
2022-09-07T02:41:00.639Z,100852.53
2022-09-07T02:43:30.392Z,100857.69
2022-09-07T02:46:14.927Z,100862.06
2022-09-07T02:48:54.505Z,100860.53
2022-09-07T02:51:52.348Z,100861.41
2022-09-07T02:54:28.783Z,100859.41
2022-09-07T02:57:03.913Z,100845.19
2022-09-07T03:00:01.513Z,100846.78
2022-09-07T03:02:33.008Z,100852.72
2022-09-07T03:05:21.623Z,100849.94
2022-09-07T03:08:07.440Z,100844.38
2022-09-07T03:10:37.779Z,100838.44
2022-09-07T03:13:06.186Z,100840.81
2022-09-07T03:15:33.668Z,100841.59
2022-09-07T03:18:01.462Z,100842.13
2022-09-07T03:20:30.864Z,100846.53
2022-09-07T03:22:58.278Z,100852.06
2022-09-07T03:25:25.696Z,100851.25
2022-09-07T03:27:53.254Z,100856.00
2022-09-07T03:30:20.751Z,100846.44
2022-09-07T03:32:48.375Z,100861.06
2022-09-07T03:35:15.948Z,100862.63
2022-09-07T03:37:44.111Z,100858.66
2022-09-07T03:40:14.248Z,100855.88
2022-09-07T03:42:42.009Z,100858.72
2022-09-07T03:45:10.555Z,100861.09
2022-09-07T03:47:39.015Z,100859.91
2022-09-07T03:50:07.519Z,100863.47
2022-09-07T03:52:36.378Z,100861.09
2022-09-07T03:55:04.991Z,100857.50
2022-09-07T03:57:32.424Z,100869.81
2022-09-07T03:59:59.869Z,100859.84
2022-09-07T04:02:27.454Z,100863.06
2022-09-07T04:04:54.932Z,100867.00
2022-09-07T04:07:22.481Z,100877.66
2022-09-07T04:09:51.460Z,100874.13
2022-09-07T04:12:19.060Z,100882.44
2022-09-07T04:14:46.554Z,100885.69
2022-09-07T04:17:14.063Z,100890.13
2022-09-07T04:19:41.628Z,100891.38
2022-09-07T04:22:09.085Z,100883.91
2022-09-07T04:24:36.564Z,100882.34
2022-09-07T04:27:04.123Z,100885.09
2022-09-07T04:29:31.560Z,100876.00
2022-09-07T04:31:58.970Z,100874.44
2022-09-07T04:34:26.418Z,100885.94
2022-09-07T04:36:53.860Z,100876.38
2022-09-07T04:39:21.273Z,100877.63
2022-09-07T04:41:48.679Z,100872.09
2022-09-07T04:44:17.125Z,100879.66
2022-09-07T04:46:44.793Z,100878.44
2022-09-07T04:49:12.340Z,100881.59
2022-09-07T04:51:42.650Z,100873.94
2022-09-07T04:54:10.782Z,100875.22
2022-09-07T04:56:38.243Z,100889.91
2022-09-07T04:59:05.813Z,100890.28
2022-09-07T05:01:34.210Z,100892.28
2022-09-07T05:04:03.354Z,100890.66
2022-09-07T05:06:30.910Z,100901.34
2022-09-07T05:08:59.167Z,100897.84
2022-09-07T05:11:29.471Z,100897.00
2022-09-07T05:13:59.596Z,100910.41
2022-09-07T05:16:28.755Z,100907.25
2022-09-07T05:18:58.896Z,100907.63
2022-09-07T05:21:28.968Z,100916.31
2022-09-07T05:23:58.098Z,100908.41
2022-09-07T05:26:28.036Z,100914.75
2022-09-07T05:31:46.575Z,100911.97
2022-09-07T05:34:31.241Z,100919.09
2022-09-07T05:36:59.755Z,100919.88
2022-09-07T05:39:28.267Z,100922.19
2022-09-07T05:41:56.457Z,100920.19
2022-09-07T05:47:11.958Z,100918.63
2022-09-07T05:49:39.519Z,100927.25
2022-09-07T05:52:07.056Z,100914.47
2022-09-07T05:54:34.801Z,100922.69
2022-09-07T05:57:03.653Z,100914.03
2022-09-07T05:59:31.392Z,100914.44
2022-09-07T06:01:59.594Z,100921.44
2022-09-07T06:04:27.146Z,100920.16
2022-09-07T06:12:29.690Z,100943.66
2022-09-07T06:14:57.215Z,100946.81
2022-09-07T06:17:24.678Z,100941.13
2022-09-07T06:19:52.236Z,100948.44
2022-09-07T06:22:19.682Z,100949.03
2022-09-07T06:24:47.136Z,100943.59
2022-09-07T06:27:14.602Z,100943.22
2022-09-07T06:29:42.211Z,100961.13
2022-09-07T06:34:57.280Z,100961.75
2022-09-07T06:37:25.061Z,100959.22
2022-09-07T06:39:52.607Z,100958.91
2022-09-07T06:42:20.072Z,100962.06
2022-09-07T06:44:52.660Z,100960.34
2022-09-07T06:47:20.571Z,100964.88
2022-09-07T06:49:47.967Z,100968.00
2022-09-07T06:52:15.425Z,100969.19
2022-09-07T06:57:27.100Z,100961.06
2022-09-07T06:59:54.696Z,100966.19
2022-09-07T07:02:22.119Z,100965.63
2022-09-07T07:04:50.420Z,100972.81
2022-09-07T07:07:17.930Z,100973.28
2022-09-07T07:09:45.417Z,100980.81
2022-09-07T07:12:12.853Z,100980.00
2022-09-07T07:14:44.651Z,100988.16
2022-09-07T07:17:13.224Z,100982.69
2022-09-07T07:19:40.826Z,100983.94
2022-09-07T07:22:23.960Z,100990.97
2022-09-07T07:24:55.894Z,100986.34
2022-09-07T07:27:23.452Z,100985.88
2022-09-07T07:29:52.456Z,100993.81
2022-09-07T07:32:20.119Z,100997.94
2022-09-07T07:34:47.543Z,100999.75
2022-09-07T07:37:15.976Z,101004.53
2022-09-07T07:42:32.565Z,101017.56
2022-09-07T07:47:53.527Z,101001.78
2022-09-07T07:50:36.262Z,101013.16
2022-09-07T07:55:54.133Z,101023.69
2022-09-07T07:58:21.761Z,101027.34
2022-09-07T08:00:56.984Z,101029.31
2022-09-07T08:03:27.217Z,101040.47
2022-09-07T08:05:55.482Z,101046.03
2022-09-07T08:08:23.745Z,101045.31
2022-09-07T08:10:54.025Z,101042.25
2022-09-07T08:13:21.625Z,101045.63
2022-09-07T08:15:49.792Z,101045.78
2022-09-07T08:18:20.075Z,101040.69
2022-09-07T08:20:47.383Z,101040.47
2022-09-07T08:23:15.433Z,101037.09
2022-09-07T08:25:53.581Z,101043.00
2022-09-07T08:28:23.456Z,101045.44
2022-09-07T08:30:51.032Z,101050.03
2022-09-07T08:33:18.772Z,101056.56
2022-09-07T08:35:56.303Z,101048.91
2022-09-07T08:38:24.260Z,101053.81
2022-09-07T08:40:51.903Z,101061.72
2022-09-07T08:43:47.132Z,101066.94
2022-09-07T08:46:30.991Z,101066.75
2022-09-07T08:49:00.031Z,101059.31
2022-09-07T08:51:44.174Z,101057.28
2022-09-07T08:54:14.106Z,101057.13
2022-09-07T08:57:20.537Z,101049.78
2022-09-07T08:59:51.289Z,101049.19
2022-09-07T09:02:41.994Z,101047.03
2022-09-07T09:05:38.172Z,101039.31
2022-09-07T09:08:25.148Z,101041.63
2022-09-07T09:11:06.058Z,101010.88
2022-09-07T09:13:52.355Z,101027.38
2022-09-07T09:16:27.032Z,101009.72
2022-09-07T09:19:15.461Z,101014.75
2022-09-07T09:21:44.281Z,101009.69
2022-09-07T09:24:19.883Z,101002.97
2022-09-07T09:26:53.113Z,101010.00
2022-09-07T09:29:22.923Z,101005.09
2022-09-07T09:31:50.174Z,101002.88
2022-09-07T09:34:23.795Z,100988.09
2022-09-07T09:36:56.682Z,100994.75
2022-09-07T09:39:30.942Z,100985.28
2022-09-07T09:42:03.377Z,100981.22
2022-09-07T09:44:37.497Z,100973.91
2022-09-07T09:49:54.448Z,100976.38
2022-09-07T09:52:34.812Z,100967.63
2022-09-07T10:01:24.806Z,100950.19
2022-09-07T10:06:24.420Z,100935.78
2022-09-07T10:08:56.540Z,100931.84
2022-09-07T10:14:35.323Z,100931.84
2022-09-07T10:17:13.205Z,100927.69
2022-09-07T10:19:42.965Z,100930.34
2022-09-07T10:22:32.202Z,100918.28
2022-09-07T10:25:00.947Z,100917.75
2022-09-07T10:27:32.020Z,100915.88
2022-09-07T10:30:01.277Z,100917.59
2022-09-07T10:32:37.524Z,100911.41
2022-09-07T10:35:28.101Z,100910.63
2022-09-07T10:38:27.712Z,100909.25
2022-09-07T10:41:09.738Z,100892.78
2022-09-07T10:43:49.838Z,100891.00
2022-09-07T10:49:25.337Z,100880.78
2022-09-07T10:52:05.441Z,100887.28
2022-09-07T10:54:46.804Z,100875.50
2022-09-07T10:57:26.817Z,100877.41
2022-09-07T11:00:13.502Z,100873.97
2022-09-07T11:06:06.617Z,100871.66
2022-09-07T11:09:16.654Z,100866.59
2022-09-07T11:12:24.909Z,100872.34
2022-09-07T11:15:13.201Z,100870.72
2022-09-07T11:18:01.274Z,100870.88
2022-09-07T11:20:34.496Z,100870.31
2022-09-07T11:23:20.410Z,100866.88
2022-09-07T11:26:07.496Z,100863.31
2022-09-07T11:31:46.057Z,100875.69
2022-09-07T11:34:25.991Z,100863.66
2022-09-07T11:37:01.007Z,100867.53
2022-09-07T11:40:06.424Z,100876.31
2022-09-07T11:43:18.758Z,100885.06
2022-09-07T11:45:51.321Z,100871.78
2022-09-07T11:48:30.451Z,100873.66
2022-09-07T11:51:02.651Z,100872.72
2022-09-07T11:53:34.470Z,100880.25
2022-09-07T11:56:18.173Z,100879.53
2022-09-07T11:59:05.665Z,100874.38
2022-09-07T12:01:38.842Z,100876.59
2022-09-07T12:04:13.204Z,100875.75
2022-09-07T12:07:06.943Z,100880.47
2022-09-07T12:10:00.801Z,100883.03
2022-09-07T12:12:46.736Z,100881.63
2022-09-07T12:15:35.009Z,100871.41
2022-09-07T12:18:14.446Z,100868.59
2022-09-07T12:20:47.847Z,100871.06
2022-09-07T12:23:15.086Z,100871.63
2022-09-07T12:25:45.763Z,100881.78
2022-09-07T12:28:24.643Z,100880.66
2022-09-07T12:31:04.537Z,100872.09
2022-09-07T12:33:38.863Z,100876.94
2022-09-07T12:36:28.014Z,100874.19
2022-09-07T12:39:25.261Z,100869.00
2022-09-07T12:42:37.885Z,100874.06
2022-09-07T12:45:37.723Z,100869.47
2022-09-07T12:48:16.187Z,100865.88
2022-09-07T12:51:16.052Z,100866.50
2022-09-07T12:54:16.762Z,100862.41
2022-09-07T13:00:32.489Z,100852.06
2022-09-07T13:09:30.550Z,100836.56
2022-09-07T13:12:04.832Z,100842.34
2022-09-07T13:14:36.963Z,100833.28
2022-09-07T13:17:38.879Z,100832.03
2022-09-07T13:20:08.918Z,100833.28
2022-09-07T13:22:36.201Z,100825.13
2022-09-07T13:25:27.182Z,100831.31
2022-09-07T13:28:01.636Z,100830.94
2022-09-07T13:30:34.726Z,100828.78
2022-09-07T13:33:24.132Z,100823.91
2022-09-07T13:35:54.289Z,100828.00
2022-09-07T13:38:21.791Z,100816.53
2022-09-07T13:40:52.484Z,100818.53
2022-09-07T13:43:25.383Z,100815.13
2022-09-07T13:45:55.875Z,100808.13
2022-09-07T13:48:35.523Z,100806.59
2022-09-07T13:51:13.245Z,100805.56
2022-09-07T13:53:56.419Z,100810.47
2022-09-07T13:56:39.265Z,100813.88
2022-09-07T13:59:22.684Z,100811.66
2022-09-07T14:01:50.747Z,100814.53
2022-09-07T14:04:32.255Z,100803.09
2022-09-07T14:07:06.595Z,100801.94
2022-09-07T14:09:34.911Z,100797.81
2022-09-07T14:12:02.434Z,100798.09
2022-09-07T14:14:32.961Z,100788.72
2022-09-07T14:17:00.194Z,100788.91
2022-09-07T14:19:33.738Z,100789.41
2022-09-07T14:22:07.176Z,100782.47
2022-09-07T14:24:40.531Z,100782.06
2022-09-07T14:27:20.694Z,100782.84
2022-09-07T14:29:48.482Z,100775.22
2022-09-07T14:32:24.563Z,100768.56
2022-09-07T14:34:52.499Z,100763.63
2022-09-07T14:37:21.894Z,100774.84
2022-09-07T14:39:50.831Z,100774.97
2022-09-07T14:42:23.754Z,100768.50
2022-09-07T14:45:11.570Z,100770.53
2022-09-07T14:47:40.660Z,100777.97
2022-09-07T14:50:20.367Z,100773.44
2022-09-07T14:53:34.288Z,100777.06
2022-09-07T14:55:40.675Z,100768.09
2022-09-07T14:58:22.839Z,100759.41
2022-09-07T15:03:57.464Z,100735.09
2022-09-07T15:09:30.727Z,100745.75
2022-09-07T15:12:36.101Z,100761.44
2022-09-07T15:15:27.090Z,100747.22
2022-09-07T15:18:01.861Z,100752.34
2022-09-07T15:20:41.700Z,100750.66
2022-09-07T15:23:17.482Z,100752.50
2022-09-07T15:25:51.968Z,100752.97
2022-09-07T15:34:11.544Z,100747.34
2022-09-07T15:36:42.896Z,100732.94
2022-09-07T15:39:19.955Z,100734.53
2022-09-07T15:41:47.490Z,100727.00
2022-09-07T15:44:16.018Z,100717.94
2022-09-07T15:47:43.177Z,100732.03
2022-09-07T15:49:31.707Z,100731.44
2022-09-07T15:52:06.611Z,100731.22
2022-09-07T15:54:39.225Z,100720.19
2022-09-07T15:59:54.284Z,100710.25
2022-09-07T16:05:12.252Z,100702.34
2022-09-07T16:10:31.136Z,100704.81
2022-09-07T16:13:01.207Z,100716.13
2022-09-07T16:15:31.317Z,100714.09
2022-09-07T16:17:58.776Z,100709.69
2022-09-07T16:20:26.860Z,100711.88
2022-09-07T16:25:43.291Z,100691.09
2022-09-07T16:28:11.116Z,100684.50
2022-09-07T16:30:40.675Z,100694.59
2022-09-07T16:33:08.468Z,100695.84
2022-09-07T16:35:38.007Z,100698.25
2022-09-07T16:40:52.823Z,100676.53
2022-09-07T16:43:20.533Z,100678.09
2022-09-07T16:46:03.219Z,100677.50
2022-09-07T16:48:32.302Z,100682.59
2022-09-07T16:51:02.550Z,100671.47
2022-09-07T16:53:32.238Z,100675.22
2022-09-07T16:56:04.799Z,100670.19
2022-09-07T16:58:37.662Z,100666.75
2022-09-07T17:01:06.762Z,100667.91
2022-09-07T17:03:35.791Z,100666.09
2022-09-07T17:06:06.198Z,100668.53
2022-09-07T17:08:34.718Z,100673.47
2022-09-07T17:11:06.141Z,100671.59
2022-09-07T17:13:34.729Z,100664.03
2022-09-07T17:16:13.747Z,100676.06
2022-09-07T17:21:37.043Z,100676.16
2022-09-07T17:24:06.511Z,100674.72
2022-09-07T17:26:34.364Z,100681.19
2022-09-07T17:29:02.042Z,100685.47
2022-09-07T17:34:22.062Z,100672.09
2022-09-07T17:36:49.501Z,100678.03
2022-09-07T17:39:18.639Z,100676.03
2022-09-07T17:41:48.332Z,100680.00
2022-09-07T17:44:16.050Z,100676.03
2022-09-07T17:46:43.557Z,100675.41
2022-09-07T17:49:13.943Z,100672.63
2022-09-07T17:51:41.441Z,100679.34
2022-09-07T17:54:13.462Z,100685.47
2022-09-07T17:56:41.764Z,100686.38
2022-09-07T18:01:58.820Z,100689.50
2022-09-07T18:04:26.435Z,100687.44
2022-09-07T18:06:54.525Z,100697.31
2022-09-07T18:09:21.941Z,100692.50
2022-09-07T18:11:50.310Z,100701.69
2022-09-07T18:14:19.032Z,100706.56
2022-09-07T18:16:49.219Z,100707.84
2022-09-07T18:19:18.230Z,100714.38
2022-09-07T18:21:48.922Z,100709.44
2022-09-07T18:24:19.905Z,100721.88
2022-09-07T18:26:50.460Z,100719.53
2022-09-07T18:29:36.831Z,100723.72
2022-09-07T18:32:09.392Z,100726.25
2022-09-07T18:34:40.673Z,100747.75
2022-09-07T18:37:08.924Z,100745.88
2022-09-07T18:39:36.721Z,100754.34
2022-09-07T18:42:04.270Z,100762.84
2022-09-07T18:47:28.951Z,100769.38
2022-09-07T18:49:57.538Z,100767.81
2022-09-07T18:55:13.008Z,100790.72
2022-09-07T18:57:40.294Z,100787.38
2022-09-07T19:00:09.486Z,100798.09
2022-09-07T19:02:37.190Z,100804.78
2022-09-07T19:07:53.328Z,100806.78
2022-09-07T19:10:20.841Z,100808.72
2022-09-07T19:12:48.068Z,100802.09
2022-09-07T19:15:15.666Z,100799.56
2022-09-07T19:17:44.270Z,100798.47
2022-09-07T19:20:11.862Z,100788.47
2022-09-07T19:22:39.341Z,100793.59
2022-09-07T19:25:06.953Z,100798.78
2022-09-07T19:27:34.444Z,100800.25
2022-09-07T19:30:01.882Z,100807.41
2022-09-07T19:32:29.282Z,100802.69
2022-09-07T19:34:56.846Z,100805.09
2022-09-07T19:37:25.521Z,100784.88
2022-09-07T19:39:56.636Z,100783.59
2022-09-07T19:42:25.303Z,100781.94
2022-09-07T19:44:53.830Z,100776.28
2022-09-07T19:47:21.979Z,100770.41
2022-09-07T19:49:49.342Z,100772.53
2022-09-07T19:52:16.662Z,100758.88
2022-09-07T19:54:43.994Z,100748.16
2022-09-07T19:57:11.449Z,100760.03
2022-09-07T19:59:38.787Z,100765.53
2022-09-07T20:02:07.163Z,100769.72
2022-09-07T20:04:35.830Z,100762.44
2022-09-07T20:07:06.622Z,100769.69
2022-09-07T20:09:34.247Z,100769.44
2022-09-07T20:12:03.723Z,100772.56
2022-09-07T20:14:31.050Z,100763.22
2022-09-07T20:16:58.429Z,100753.66
2022-09-07T20:19:25.839Z,100750.88
2022-09-07T20:21:56.094Z,100737.75
2022-09-07T20:24:23.424Z,100734.72
2022-09-07T20:26:50.768Z,100731.38
2022-09-07T20:29:27.820Z,100737.19
2022-09-07T20:31:59.371Z,100745.13
2022-09-07T20:34:28.050Z,100749.28
2022-09-07T20:36:56.846Z,100752.44
2022-09-07T20:39:24.268Z,100745.91
2022-09-07T20:41:51.804Z,100745.03
2022-09-07T20:44:19.306Z,100746.28
2022-09-07T20:46:46.723Z,100741.84
2022-09-07T20:49:14.009Z,100746.34
2022-09-07T20:51:41.444Z,100753.44
2022-09-07T20:54:08.658Z,100734.91
2022-09-07T20:56:35.926Z,100718.03
2022-09-07T20:59:03.954Z,100712.63
2022-09-07T21:01:32.619Z,100700.41
2022-09-07T21:04:01.291Z,100699.31
2022-09-07T21:06:29.578Z,100709.44
2022-09-07T21:08:57.985Z,100690.34
2022-09-07T21:11:31.165Z,100696.16
2022-09-07T21:14:06.991Z,100703.88
2022-09-07T21:16:35.358Z,100698.75
2022-09-07T21:19:05.140Z,100699.06
2022-09-07T21:21:39.333Z,100711.50
2022-09-07T21:24:15.076Z,100695.06
2022-09-07T21:26:42.439Z,100703.56
2022-09-07T21:29:15.732Z,100692.22
2022-09-07T21:31:46.380Z,100698.03
2022-09-07T21:34:14.941Z,100703.25
2022-09-07T21:36:42.720Z,100705.69
2022-09-07T21:39:13.843Z,100704.03
2022-09-07T21:41:43.102Z,100705.63
2022-09-07T21:44:13.047Z,100712.75
2022-09-07T21:46:41.521Z,100706.41
2022-09-07T21:49:11.733Z,100705.66
2022-09-07T21:51:39.225Z,100703.31
2022-09-07T21:54:07.674Z,100694.34
2022-09-07T21:56:35.052Z,100688.41
2022-09-07T21:59:02.759Z,100678.22
2022-09-07T22:01:30.878Z,100668.59
2022-09-07T22:04:00.908Z,100674.94
2022-09-07T22:06:29.207Z,100680.25
2022-09-07T22:08:56.873Z,100678.25
2022-09-07T22:11:26.204Z,100667.75
2022-09-07T22:13:55.664Z,100664.53
2022-09-07T22:16:23.355Z,100664.69
2022-09-07T22:18:50.778Z,100671.50
2022-09-07T22:21:29.112Z,100672.56
2022-09-07T22:24:02.179Z,100671.50
2022-09-07T22:26:35.281Z,100674.78
2022-09-07T22:29:02.787Z,100671.78
2022-09-07T22:31:32.405Z,100671.00
2022-09-07T22:34:01.940Z,100672.97
2022-09-07T22:36:32.787Z,100679.75
2022-09-07T22:39:03.501Z,100682.41
2022-09-07T22:41:34.100Z,100673.75
2022-09-07T22:44:20.286Z,100682.91
2022-09-07T22:46:50.347Z,100685.94
2022-09-07T22:49:18.048Z,100680.22
2022-09-07T22:51:45.750Z,100693.34
2022-09-07T22:54:13.221Z,100691.19
2022-09-07T22:56:40.927Z,100682.63
2022-09-07T22:59:09.387Z,100679.03
2022-09-07T23:01:37.396Z,100675.91
2022-09-07T23:04:05.042Z,100674.69
2022-09-07T23:06:37.821Z,100672.09
2022-09-07T23:09:12.384Z,100674.41
2022-09-07T23:11:39.749Z,100668.38
2022-09-07T23:14:11.917Z,100662.81
2022-09-07T23:16:39.518Z,100654.50
2022-09-07T23:19:06.967Z,100650.53
2022-09-07T23:21:34.227Z,100636.19
2022-09-07T23:24:02.098Z,100645.50
2022-09-07T23:26:31.356Z,100641.66
2022-09-07T23:29:04.792Z,100647.50
2022-09-07T23:31:34.898Z,100645.06
2022-09-07T23:34:02.874Z,100643.94
2022-09-07T23:36:30.807Z,100648.75
2022-09-07T23:38:59.517Z,100649.53
2022-09-07T23:41:27.824Z,100639.03
2022-09-07T23:43:55.376Z,100642.66
2022-09-07T23:46:23.463Z,100628.69
2022-09-07T23:48:51.159Z,100629.63
2022-09-07T23:51:23.535Z,100621.41
2022-09-07T23:53:52.862Z,100611.59
2022-09-07T23:56:21.565Z,100619.94
2022-09-07T23:58:48.857Z,100607.31
